createdAt,value
2018-02-16T00:00:18.100Z,35.63
2018-02-16T00:01:23.739Z,32.20
2018-02-16T00:02:30.009Z,31.48
2018-02-16T00:03:35.947Z,33.80
2018-02-16T00:04:42.151Z,33.13
2018-02-16T00:05:48.305Z,32.28
2018-02-16T00:06:54.506Z,28.55
2018-02-16T00:08:03.844Z,30.30
2018-02-16T00:09:10.058Z,33.63
2018-02-16T00:10:16.308Z,29.73
2018-02-16T00:11:22.465Z,31.55
2018-02-16T00:12:28.633Z,34.10
2018-02-16T00:13:34.816Z,34.60
2018-02-16T00:14:40.993Z,29.30
2018-02-16T00:15:47.172Z,29.77
2018-02-16T00:16:53.390Z,33.53
2018-02-16T00:17:59.591Z,31.60
2018-02-16T00:19:04.817Z,31.30
2018-02-16T00:20:10.968Z,36.65
2018-02-16T00:21:17.135Z,33.20
2018-02-16T00:22:23.280Z,31.80
2018-02-16T00:23:29.184Z,34.15
2018-02-16T00:24:35.324Z,34.95
2018-02-16T00:25:41.531Z,34.08
2018-02-16T00:26:47.631Z,35.15
2018-02-16T00:27:53.758Z,33.10
2018-02-16T00:28:59.919Z,31.23
2018-02-16T00:30:06.053Z,34.97
2018-02-16T00:31:12.240Z,38.33
2018-02-16T00:32:18.443Z,34.15
2018-02-16T00:33:24.564Z,35.65
2018-02-16T00:34:30.748Z,36.00
2018-02-16T00:35:36.896Z,35.05
2018-02-16T00:36:43.031Z,34.38
2018-02-16T00:37:49.199Z,32.33
2018-02-16T00:38:55.413Z,36.53
2018-02-16T00:40:01.572Z,34.97
2018-02-16T00:41:07.735Z,38.08
2018-02-16T00:42:13.909Z,36.78
2018-02-16T00:43:20.040Z,36.38
2018-02-16T00:44:26.198Z,35.53
2018-02-16T00:45:32.344Z,34.25
2018-02-16T00:46:38.584Z,36.80
2018-02-16T00:47:44.796Z,34.60
2018-02-16T00:48:50.932Z,33.13
2018-02-16T00:49:56.877Z,36.90
2018-02-16T00:51:03.026Z,36.85
2018-02-16T00:52:09.185Z,38.58
2018-02-16T00:53:15.376Z,35.38
2018-02-16T00:54:21.582Z,36.67
2018-02-16T00:55:27.760Z,39.78
2018-02-16T00:56:33.894Z,38.25
2018-02-16T00:57:40.083Z,37.53
2018-02-16T00:58:46.288Z,38.85
2018-02-16T00:59:52.480Z,39.15
2018-02-16T01:00:58.615Z,35.88
2018-02-16T01:02:04.793Z,36.28
2018-02-16T01:03:10.986Z,37.00
2018-02-16T01:04:16.900Z,40.42
2018-02-16T01:05:23.128Z,40.10
2018-02-16T01:06:29.347Z,41.42
2018-02-16T01:07:35.252Z,41.80
2018-02-16T01:08:42.289Z,40.85
2018-02-16T01:09:48.464Z,38.10
2018-02-16T01:10:54.640Z,38.35
2018-02-16T01:12:01.621Z,39.63
2018-02-16T01:13:07.789Z,36.10
2018-02-16T01:14:14.836Z,39.38
2018-02-16T01:15:20.992Z,36.75
2018-02-16T01:16:26.824Z,40.67
2018-02-16T01:17:33.053Z,36.55
2018-02-16T01:18:39.205Z,42.22
2018-02-16T01:19:45.413Z,38.17
2018-02-16T01:20:51.584Z,37.42
2018-02-16T01:21:57.762Z,38.22
2018-02-16T01:23:03.951Z,39.70
2018-02-16T01:24:10.112Z,40.05
2018-02-16T01:25:16.288Z,36.13
2018-02-16T01:26:24.361Z,42.08
2018-02-16T01:27:30.322Z,39.17
2018-02-16T01:28:36.478Z,40.40
2018-02-16T01:29:43.039Z,45.42
2018-02-16T01:30:49.204Z,41.03
2018-02-16T01:31:55.388Z,39.72
2018-02-16T01:33:01.636Z,40.67
2018-02-16T01:34:07.796Z,43.45
2018-02-16T01:35:13.999Z,44.92
2018-02-16T01:36:20.252Z,43.80
2018-02-16T01:37:26.391Z,42.80
2018-02-16T01:38:32.556Z,40.33
2018-02-16T01:39:38.760Z,41.97
2018-02-16T01:40:45.000Z,41.25
2018-02-16T01:41:51.172Z,39.10
2018-02-16T01:42:57.303Z,38.90
2018-02-16T01:44:03.488Z,39.05
2018-02-16T01:45:09.725Z,42.17
2018-02-16T01:46:15.923Z,43.17
2018-02-16T01:47:22.102Z,40.53
2018-02-16T01:48:28.290Z,43.13
2018-02-16T01:49:45.459Z,39.45
2018-02-16T01:50:51.351Z,38.65
2018-02-16T01:51:57.586Z,39.83
2018-02-16T01:53:04.879Z,42.30
2018-02-16T01:54:15.973Z,42.58
2018-02-16T01:55:22.124Z,40.10
2018-02-16T01:56:29.206Z,40.15
2018-02-16T01:57:35.423Z,39.95
2018-02-16T01:58:41.595Z,41.90
2018-02-16T01:59:47.738Z,38.80
2018-02-16T02:00:53.895Z,43.42
2018-02-16T02:02:00.053Z,42.85
2018-02-16T02:03:06.207Z,42.25
2018-02-16T02:04:12.370Z,42.67
2018-02-16T02:05:18.579Z,38.80
2018-02-16T02:06:24.776Z,41.17
2018-02-16T02:07:30.991Z,37.83
2018-02-16T02:08:37.164Z,41.80
2018-02-16T02:09:43.293Z,38.20
2018-02-16T02:10:49.465Z,40.45
2018-02-16T02:11:55.717Z,41.97
2018-02-16T02:13:01.885Z,42.75
2018-02-16T02:14:08.023Z,42.58
2018-02-16T02:15:13.927Z,37.05
2018-02-16T02:16:20.099Z,42.85
2018-02-16T02:17:26.370Z,41.53
2018-02-16T02:18:32.540Z,42.88
2018-02-16T02:19:38.713Z,40.00
2018-02-16T02:20:50.214Z,42.90
2018-02-16T02:21:56.447Z,40.92
2018-02-16T02:23:02.837Z,42.97
2018-02-16T02:24:09.062Z,42.35
2018-02-16T02:25:15.258Z,39.05
2018-02-16T02:26:21.414Z,40.45
2018-02-16T02:27:27.598Z,44.22
2018-02-16T02:28:33.796Z,45.28
2018-02-16T02:29:39.989Z,40.50
2018-02-16T02:30:46.156Z,41.92
2018-02-16T02:31:52.660Z,40.12
2018-02-16T02:32:58.543Z,41.97
2018-02-16T02:34:06.601Z,44.90
2018-02-16T02:35:12.723Z,41.95
2018-02-16T02:36:18.863Z,42.62
2018-02-16T02:37:25.144Z,42.53
2018-02-16T02:38:31.378Z,42.47
2018-02-16T02:39:37.552Z,38.80
2018-02-16T02:40:44.729Z,40.72
2018-02-16T02:41:50.903Z,43.90
2018-02-16T02:42:57.035Z,43.90
2018-02-16T02:44:02.869Z,45.15
2018-02-16T02:45:09.124Z,42.10
2018-02-16T02:46:15.242Z,44.70
2018-02-16T02:47:21.415Z,41.65
2018-02-16T02:48:27.610Z,41.28
2018-02-16T02:49:33.853Z,41.53
2018-02-16T02:50:40.029Z,42.13
2018-02-16T02:51:47.111Z,42.13
2018-02-16T02:52:53.350Z,39.45
2018-02-16T02:53:59.548Z,39.47
2018-02-16T02:55:05.758Z,40.95
2018-02-16T02:56:16.974Z,39.40
2018-02-16T02:57:23.105Z,46.83
2018-02-16T02:58:29.257Z,38.70
2018-02-16T02:59:35.451Z,39.17
2018-02-16T03:00:41.402Z,43.17
2018-02-16T03:01:47.619Z,40.35
2018-02-16T03:02:53.895Z,38.15
2018-02-16T03:04:00.064Z,37.33
2018-02-16T03:05:06.319Z,46.08
2018-02-16T03:06:12.473Z,42.50
2018-02-16T03:07:18.628Z,42.60
2018-02-16T03:08:24.838Z,42.10
2018-02-16T03:09:30.980Z,47.30
2018-02-16T03:10:37.128Z,40.65
2018-02-16T03:11:43.357Z,42.78
2018-02-16T03:12:50.540Z,42.17
2018-02-16T03:13:56.689Z,40.63
2018-02-16T03:15:02.866Z,42.03
2018-02-16T03:16:08.440Z,45.50
2018-02-16T03:17:14.651Z,40.10
2018-02-16T03:18:20.912Z,40.63
2018-02-16T03:19:27.295Z,39.75
2018-02-16T03:20:33.426Z,39.92
2018-02-16T03:21:39.619Z,43.03
2018-02-16T03:22:46.103Z,39.78
2018-02-16T03:23:52.294Z,41.15
2018-02-16T03:24:58.473Z,41.22
2018-02-16T03:26:04.691Z,45.55
2018-02-16T03:27:10.575Z,40.38
2018-02-16T03:28:16.774Z,39.25
2018-02-16T03:29:22.924Z,37.22
2018-02-16T03:30:29.081Z,37.25
2018-02-16T03:31:35.237Z,38.08
2018-02-16T03:32:41.380Z,41.15
2018-02-16T03:33:47.516Z,43.30
2018-02-16T03:34:53.692Z,38.20
2018-02-16T03:35:59.873Z,37.65
2018-02-16T03:37:06.061Z,44.20
2018-02-16T03:38:15.197Z,42.53
2018-02-16T03:39:21.393Z,42.70
2018-02-16T03:40:27.540Z,34.45
2018-02-16T03:41:33.756Z,39.22
2018-02-16T03:42:39.896Z,38.60
2018-02-16T03:43:46.069Z,36.03
2018-02-16T03:44:52.257Z,35.22
2018-02-16T03:45:58.364Z,36.90
2018-02-16T03:47:04.540Z,40.78
2018-02-16T03:48:10.707Z,43.55
2018-02-16T03:49:16.860Z,40.88
2018-02-16T03:50:23.009Z,40.72
2018-02-16T03:51:29.194Z,41.17
2018-02-16T03:52:35.448Z,38.28
2018-02-16T03:53:41.640Z,36.30
2018-02-16T03:54:47.863Z,45.50
2018-02-16T03:55:53.823Z,37.38
2018-02-16T03:56:59.976Z,41.20
2018-02-16T03:58:06.233Z,41.37
2018-02-16T03:59:13.339Z,40.22
2018-02-16T04:00:19.607Z,37.90
2018-02-16T04:01:25.828Z,37.28
2018-02-16T04:02:31.994Z,36.20
2018-02-16T04:03:38.138Z,47.00
2018-02-16T04:04:44.276Z,40.88
2018-02-16T04:05:50.401Z,39.42
2018-02-16T04:06:56.691Z,38.15
2018-02-16T04:08:02.824Z,37.00
2018-02-16T04:09:09.095Z,38.60
2018-02-16T04:10:15.340Z,35.80
2018-02-16T04:11:21.514Z,34.15
2018-02-16T04:12:27.692Z,37.75
2018-02-16T04:13:33.928Z,39.50
2018-02-16T04:14:40.186Z,38.28
2018-02-16T04:15:46.857Z,41.17
2018-02-16T04:16:53.661Z,37.80
2018-02-16T04:18:01.289Z,37.88
2018-02-16T04:19:08.196Z,41.13
2018-02-16T04:20:16.172Z,34.47
2018-02-16T04:21:24.294Z,38.00
2018-02-16T04:22:31.341Z,36.03
2018-02-16T04:23:38.105Z,39.80
2018-02-16T04:24:45.195Z,37.15
2018-02-16T04:25:52.999Z,36.25
2018-02-16T04:27:00.559Z,39.72
2018-02-16T04:28:07.338Z,37.40
2018-02-16T04:29:14.268Z,41.20
2018-02-16T04:30:21.496Z,41.67
2018-02-16T04:31:27.966Z,35.20
2018-02-16T04:32:34.247Z,32.92
2018-02-16T04:33:40.403Z,37.55
2018-02-16T04:34:46.553Z,38.05
2018-02-16T04:35:52.929Z,40.20
2018-02-16T04:36:59.108Z,35.60
2018-02-16T04:38:04.893Z,35.70
2018-02-16T04:39:11.952Z,36.58
2018-02-16T04:40:18.106Z,40.55
2018-02-16T04:41:24.313Z,36.20
2018-02-16T04:42:30.448Z,40.05
2018-02-16T04:43:36.626Z,37.88
2018-02-16T04:44:42.820Z,37.45
2018-02-16T04:45:48.932Z,35.40
2018-02-16T04:46:55.075Z,38.45
2018-02-16T04:48:01.312Z,35.50
2018-02-16T04:49:07.463Z,34.75
2018-02-16T04:50:13.596Z,35.47
2018-02-16T04:51:20.200Z,35.72
2018-02-16T04:52:27.233Z,33.97
2018-02-16T04:53:35.920Z,38.22
2018-02-16T04:54:43.341Z,36.60
2018-02-16T04:55:51.616Z,34.08
2018-02-16T04:57:00.072Z,36.30
2018-02-16T04:58:07.507Z,32.85
2018-02-16T04:59:16.479Z,35.85
2018-02-16T05:00:24.754Z,34.47
2018-02-16T05:01:33.161Z,29.75
2018-02-16T05:02:40.564Z,30.67
2018-02-16T05:03:47.766Z,34.15
2018-02-16T05:04:55.499Z,31.42
2018-02-16T05:06:02.568Z,31.65
2018-02-16T05:07:09.653Z,33.15
2018-02-16T05:08:17.563Z,35.97
2018-02-16T05:09:25.293Z,34.50
2018-02-16T05:10:33.353Z,34.58
2018-02-16T05:11:41.042Z,35.45
2018-02-16T05:12:48.604Z,32.25
2018-02-16T05:13:56.184Z,34.72
2018-02-16T05:15:03.494Z,39.05
2018-02-16T05:16:10.918Z,36.15
2018-02-16T05:17:17.399Z,34.42
2018-02-16T05:18:23.629Z,35.13
2018-02-16T05:19:32.787Z,37.83
2018-02-16T05:20:38.932Z,36.40
2018-02-16T05:21:45.065Z,36.88
2018-02-16T05:22:51.217Z,40.05
2018-02-16T05:24:01.847Z,40.15
2018-02-16T05:25:07.766Z,43.58
2018-02-16T05:26:13.991Z,40.08
2018-02-16T05:27:20.495Z,41.97
2018-02-16T05:28:26.618Z,38.30
2018-02-16T05:29:33.181Z,41.37
2018-02-16T05:30:39.385Z,49.30
2018-02-16T05:31:45.539Z,45.28
2018-02-16T05:32:51.767Z,43.53
2018-02-16T05:33:58.907Z,43.30
2018-02-16T05:35:05.084Z,43.35
2018-02-16T05:36:11.304Z,46.60
2018-02-16T05:37:17.449Z,36.63
2018-02-16T05:38:23.585Z,42.72
2018-02-16T05:39:29.736Z,41.03
2018-02-16T05:40:35.945Z,43.30
2018-02-16T05:41:42.168Z,46.83
2018-02-16T05:42:48.347Z,40.58
2018-02-16T05:43:54.163Z,40.72
2018-02-16T05:45:00.348Z,38.83
2018-02-16T05:46:06.561Z,45.40
2018-02-16T05:47:12.551Z,41.20
2018-02-16T05:48:18.740Z,43.47
2018-02-16T05:49:24.938Z,49.35
2018-02-16T05:50:31.123Z,44.90
2018-02-16T05:51:37.296Z,47.42
2018-02-16T05:52:43.483Z,47.28
2018-02-16T05:53:49.725Z,42.33
2018-02-16T05:54:55.906Z,45.85
2018-02-16T05:56:02.063Z,45.00
2018-02-16T05:57:08.274Z,45.35
2018-02-16T05:58:14.418Z,42.17
2018-02-16T05:59:20.612Z,42.95
2018-02-16T06:00:26.764Z,43.47
2018-02-16T06:01:33.005Z,43.40
2018-02-16T06:02:38.796Z,40.95
2018-02-16T06:03:48.984Z,41.58
2018-02-16T06:04:55.115Z,44.53
2018-02-16T06:06:01.251Z,43.13
2018-02-16T06:07:07.434Z,48.85
2018-02-16T06:08:13.649Z,46.70
2018-02-16T06:09:19.892Z,44.40
2018-02-16T06:10:26.104Z,47.83
2018-02-16T06:11:32.320Z,38.55
2018-02-16T06:12:38.572Z,47.85
2018-02-16T06:13:44.824Z,42.85
2018-02-16T06:14:51.036Z,42.97
2018-02-16T06:15:57.172Z,41.92
2018-02-16T06:17:03.361Z,42.88
2018-02-16T06:18:09.541Z,43.78
2018-02-16T06:19:15.759Z,41.83
2018-02-16T06:20:21.951Z,40.83
2018-02-16T06:21:28.148Z,45.53
2018-02-16T06:22:34.330Z,44.33
2018-02-16T06:23:40.532Z,42.08
2018-02-16T06:24:46.670Z,44.20
2018-02-16T06:25:52.857Z,39.67
2018-02-16T06:26:59.064Z,42.38
2018-02-16T06:28:05.225Z,42.62
2018-02-16T06:29:11.366Z,37.75
2018-02-16T06:30:22.880Z,37.72
2018-02-16T06:31:29.392Z,42.97
2018-02-16T06:32:35.566Z,39.55
2018-02-16T06:33:41.741Z,40.90
2018-02-16T06:34:47.918Z,44.08
2018-02-16T06:35:54.076Z,38.70
2018-02-16T06:37:00.215Z,43.10
2018-02-16T06:38:06.364Z,35.65
2018-02-16T06:39:12.590Z,40.50
2018-02-16T06:40:18.783Z,36.33
2018-02-16T06:41:24.984Z,38.55
2018-02-16T06:42:31.168Z,48.45
2018-02-16T06:43:37.316Z,35.58
2018-02-16T06:44:43.524Z,36.58
2018-02-16T06:45:49.687Z,40.95
2018-02-16T06:46:55.871Z,38.00
2018-02-16T06:48:01.994Z,40.70
2018-02-16T06:49:08.174Z,42.42
2018-02-16T06:50:14.371Z,42.62
2018-02-16T06:51:20.542Z,40.47
2018-02-16T06:52:26.729Z,42.33
2018-02-16T06:53:32.865Z,37.83
2018-02-16T06:54:39.096Z,38.75
2018-02-16T06:55:45.280Z,43.05
2018-02-16T06:56:51.480Z,36.15
2018-02-16T06:57:57.639Z,37.03
2018-02-16T06:59:03.817Z,36.88
2018-02-16T07:00:09.709Z,33.45
2018-02-16T07:01:15.953Z,34.28
2018-02-16T07:02:22.163Z,39.40
2018-02-16T07:03:28.400Z,41.50
2018-02-16T07:04:34.547Z,36.97
2018-02-16T07:05:40.704Z,33.25
2018-02-16T07:06:46.862Z,42.97
2018-02-16T07:07:53.098Z,40.40
2018-02-16T07:08:59.250Z,39.83
2018-02-16T07:10:05.434Z,39.95
2018-02-16T07:11:11.626Z,38.05
2018-02-16T07:12:17.844Z,42.38
2018-02-16T07:13:23.997Z,37.55
2018-02-16T07:14:30.199Z,36.22
2018-02-16T07:15:36.417Z,36.75
2018-02-16T07:16:42.650Z,36.05
2018-02-16T07:17:48.822Z,38.28
2018-02-16T07:18:54.819Z,38.42
2018-02-16T07:20:04.371Z,44.08
2018-02-16T07:21:10.263Z,40.20
2018-02-16T07:22:16.463Z,35.80
2018-02-16T07:23:22.615Z,39.80
2018-02-16T07:24:28.792Z,39.72
2018-02-16T07:25:35.009Z,36.53
2018-02-16T07:26:41.230Z,38.17
2018-02-16T07:27:47.436Z,41.65
2018-02-16T07:28:53.616Z,41.10
2018-02-16T07:29:59.826Z,39.33
2018-02-16T07:31:06.087Z,40.85
2018-02-16T07:32:12.140Z,36.92
2018-02-16T07:33:18.285Z,36.83
2018-02-16T07:34:24.499Z,35.05
2018-02-16T07:35:30.725Z,38.83
2018-02-16T07:36:36.884Z,38.35
2018-02-16T07:37:43.066Z,38.47
2018-02-16T07:38:49.204Z,36.70
2018-02-16T07:39:55.332Z,40.50
2018-02-16T07:41:01.511Z,36.45
2018-02-16T07:42:07.696Z,40.70
2018-02-16T07:43:13.935Z,36.20
2018-02-16T07:44:20.137Z,39.50
2018-02-16T07:45:26.417Z,39.60
2018-02-16T07:46:32.624Z,38.03
2018-02-16T07:47:38.776Z,36.60
2018-02-16T07:48:44.975Z,36.20
2018-02-16T07:49:51.215Z,39.10
2018-02-16T07:50:57.392Z,39.60
2018-02-16T07:52:03.193Z,38.58
2018-02-16T07:53:09.382Z,39.70
2018-02-16T07:54:15.555Z,42.97
2018-02-16T07:55:21.750Z,46.88
2018-02-16T07:56:27.940Z,35.65
2018-02-16T07:57:34.232Z,38.17
2018-02-16T07:58:40.579Z,40.42
2018-02-16T07:59:46.780Z,35.58
2018-02-16T08:00:53.051Z,35.63
2018-02-16T08:01:59.500Z,40.38
2018-02-16T08:03:05.663Z,41.22
2018-02-16T08:04:11.835Z,38.05
2018-02-16T08:05:18.033Z,37.60
2018-02-16T08:06:24.190Z,38.47
2018-02-16T08:07:30.357Z,38.08
2018-02-16T08:08:36.593Z,42.08
2018-02-16T08:09:42.720Z,34.85
2018-02-16T08:10:48.865Z,37.22
2018-02-16T08:11:55.017Z,40.50
2018-02-16T08:13:01.158Z,39.33
2018-02-16T08:14:07.348Z,37.28
2018-02-16T08:15:13.486Z,40.05
2018-02-16T08:16:19.624Z,41.72
2018-02-16T08:17:25.817Z,36.92
2018-02-16T08:18:32.141Z,41.45
2018-02-16T08:19:38.318Z,37.75
2018-02-16T08:20:44.506Z,39.35
2018-02-16T08:21:50.624Z,38.28
2018-02-16T08:22:56.790Z,37.33
2018-02-16T08:24:02.973Z,39.75
2018-02-16T08:25:09.391Z,33.10
2018-02-16T08:26:15.542Z,36.17
2018-02-16T08:27:21.671Z,41.50
2018-02-16T08:28:27.856Z,41.03
2018-02-16T08:29:34.045Z,37.78
2018-02-16T08:30:39.875Z,37.55
2018-02-16T08:31:46.044Z,35.70
2018-02-16T08:32:52.211Z,33.10
2018-02-16T08:33:58.417Z,37.88
2018-02-16T08:35:04.526Z,39.33
2018-02-16T08:36:10.697Z,37.58
2018-02-16T08:37:16.572Z,38.20
2018-02-16T08:38:22.503Z,35.35
2018-02-16T08:39:28.649Z,37.35
2018-02-16T08:40:34.820Z,40.15
2018-02-16T08:41:40.979Z,37.90
2018-02-16T08:42:47.135Z,36.15
2018-02-16T08:43:53.274Z,35.05
2018-02-16T08:44:59.454Z,42.58
2018-02-16T08:46:05.628Z,36.40
2018-02-16T08:47:11.843Z,37.33
2018-02-16T08:48:17.990Z,36.10
2018-02-16T08:49:24.158Z,36.58
2018-02-16T08:50:30.395Z,36.72
2018-02-16T08:51:36.538Z,34.38
2018-02-16T08:52:42.746Z,42.20
2018-02-16T08:53:48.930Z,33.17
2018-02-16T08:54:55.065Z,35.88
2018-02-16T08:56:01.188Z,32.20
2018-02-16T08:57:07.372Z,37.30
2018-02-16T08:58:13.533Z,35.38
2018-02-16T08:59:19.700Z,37.65
2018-02-16T09:00:25.904Z,34.75
2018-02-16T09:01:32.140Z,36.92
2018-02-16T09:02:37.972Z,38.85
2018-02-16T09:03:44.170Z,37.63
2018-02-16T09:04:50.296Z,35.78
2018-02-16T09:05:56.476Z,31.83
2018-02-16T09:07:02.638Z,33.47
2018-02-16T09:08:08.851Z,40.15
2018-02-16T09:09:14.969Z,38.08
2018-02-16T09:10:21.140Z,37.85
2018-02-16T09:11:27.496Z,34.67
2018-02-16T09:12:33.677Z,38.10
2018-02-16T09:13:39.833Z,39.15
2018-02-16T09:14:46.006Z,35.58
2018-02-16T09:15:52.128Z,38.08
2018-02-16T09:16:58.280Z,38.92
2018-02-16T09:18:04.450Z,35.08
2018-02-16T09:19:14.645Z,39.67
2018-02-16T09:20:20.792Z,37.90
2018-02-16T09:21:26.916Z,38.67
2018-02-16T09:22:33.082Z,38.65
2018-02-16T09:23:39.261Z,39.22
2018-02-16T09:24:45.380Z,38.55
2018-02-16T09:25:51.573Z,42.03
2018-02-16T09:26:57.721Z,45.47
2018-02-16T09:28:03.886Z,42.42
2018-02-16T09:29:10.025Z,33.17
2018-02-16T09:30:16.148Z,35.83
2018-02-16T09:31:22.334Z,34.17
2018-02-16T09:32:28.515Z,33.58
2018-02-16T09:33:34.785Z,38.65
2018-02-16T09:34:40.885Z,32.38
2018-02-16T09:35:47.177Z,35.70
2018-02-16T09:36:53.392Z,38.70
2018-02-16T09:37:59.590Z,35.67
2018-02-16T09:39:06.204Z,33.53
2018-02-16T09:40:12.685Z,38.97
2018-02-16T09:41:18.862Z,35.83
2018-02-16T09:42:24.975Z,32.33
2018-02-16T09:43:36.262Z,38.40
2018-02-16T09:44:42.434Z,36.25
2018-02-16T09:45:48.565Z,31.87
2018-02-16T09:46:54.760Z,32.72
2018-02-16T09:48:00.913Z,36.80
2018-02-16T09:49:06.902Z,33.28
2018-02-16T09:50:13.112Z,34.38
2018-02-16T09:51:19.239Z,36.83
2018-02-16T09:52:25.407Z,31.87
2018-02-16T09:53:31.588Z,36.00
2018-02-16T09:54:37.753Z,31.65
2018-02-16T09:55:43.635Z,33.13
2018-02-16T09:56:49.582Z,33.47
2018-02-16T09:57:55.700Z,34.25
2018-02-16T09:59:01.916Z,34.38
2018-02-16T10:00:08.093Z,34.72
2018-02-16T10:01:14.274Z,35.00
2018-02-16T10:02:20.500Z,32.88
2018-02-16T10:03:26.663Z,35.08
2018-02-16T10:04:32.805Z,31.92
2018-02-16T10:05:39.081Z,33.97
2018-02-16T10:06:45.254Z,30.65
2018-02-16T10:07:51.142Z,36.90
2018-02-16T10:08:57.304Z,34.70
2018-02-16T10:10:03.472Z,32.95
2018-02-16T10:11:09.456Z,35.28
2018-02-16T10:12:15.640Z,30.25
2018-02-16T10:13:21.841Z,32.05
2018-02-16T10:14:29.800Z,34.13
2018-02-16T10:15:35.948Z,28.25
2018-02-16T10:16:42.093Z,35.03
2018-02-16T10:17:48.044Z,34.25
2018-02-16T10:18:54.220Z,38.40
2018-02-16T10:20:00.403Z,32.92
2018-02-16T10:21:06.559Z,32.30
2018-02-16T10:22:12.745Z,31.65
2018-02-16T10:23:18.954Z,33.13
2018-02-16T10:24:24.927Z,29.63
2018-02-16T10:25:31.172Z,33.65
2018-02-16T10:26:37.415Z,44.10
2018-02-16T10:27:43.854Z,33.15
2018-02-16T10:28:50.457Z,29.45
2018-02-16T10:29:56.732Z,26.92
2018-02-16T10:31:02.971Z,31.17
2018-02-16T10:32:09.070Z,32.00
2018-02-16T10:33:15.273Z,29.58
2018-02-16T10:34:21.468Z,28.08
2018-02-16T10:35:27.729Z,29.02
2018-02-16T10:36:34.056Z,29.63
2018-02-16T10:37:40.238Z,27.35
2018-02-16T10:38:46.419Z,29.90
2018-02-16T10:39:52.610Z,33.65
2018-02-16T10:40:58.782Z,33.47
2018-02-16T10:42:05.037Z,31.25
2018-02-16T10:43:11.424Z,38.67
2018-02-16T10:44:17.789Z,30.90
2018-02-16T10:45:24.011Z,31.58
2018-02-16T10:46:30.181Z,29.25
2018-02-16T10:47:36.648Z,30.05
2018-02-16T10:48:46.341Z,27.73
2018-02-16T10:49:55.854Z,28.75
2018-02-16T10:51:02.076Z,31.17
2018-02-16T10:52:08.212Z,28.92
2018-02-16T10:53:14.381Z,25.05
2018-02-16T10:54:20.528Z,27.42
2018-02-16T10:55:26.712Z,27.20
2018-02-16T10:56:41.637Z,27.55
2018-02-16T10:57:47.752Z,25.12
2018-02-16T10:58:53.937Z,27.48
2018-02-16T11:00:00.147Z,25.37
2018-02-16T11:01:11.328Z,30.62
2018-02-16T11:02:22.925Z,22.42
2018-02-16T11:03:34.626Z,24.10
2018-02-16T11:04:51.361Z,27.20
2018-02-16T11:05:57.367Z,27.60
2018-02-16T11:07:09.008Z,25.40
2018-02-16T11:08:20.680Z,31.02
2018-02-16T11:09:26.834Z,25.25
2018-02-16T11:10:32.951Z,27.17
2018-02-16T11:11:39.150Z,25.48
2018-02-16T11:12:45.307Z,23.25
2018-02-16T11:13:51.475Z,23.65
2018-02-16T11:14:57.923Z,26.80
2018-02-16T11:16:04.110Z,27.02
2018-02-16T11:17:10.272Z,26.35
2018-02-16T11:18:16.482Z,27.30
2018-02-16T11:19:22.662Z,26.75
2018-02-16T11:20:28.861Z,28.30
2018-02-16T11:21:34.997Z,25.75
2018-02-16T11:22:41.198Z,22.95
2018-02-16T11:23:47.368Z,26.80
2018-02-16T11:24:53.702Z,26.50
2018-02-16T11:25:59.827Z,25.42
2018-02-16T11:27:06.019Z,24.55
2018-02-16T11:28:12.278Z,27.05
2018-02-16T11:29:18.411Z,24.58
2018-02-16T11:30:24.589Z,26.02
2018-02-16T11:31:30.734Z,23.02
2018-02-16T11:32:37.160Z,26.12
2018-02-16T11:33:43.347Z,26.37
2018-02-16T11:34:49.534Z,22.10
2018-02-16T11:35:55.719Z,25.20
2018-02-16T11:37:01.889Z,24.35
2018-02-16T11:38:08.073Z,24.58
2018-02-16T11:39:14.262Z,25.05
2018-02-16T11:40:20.552Z,20.90
2018-02-16T11:41:26.848Z,24.33
2018-02-16T11:42:33.025Z,25.10
2018-02-16T11:43:39.226Z,25.15
2018-02-16T11:44:45.404Z,21.45
2018-02-16T11:45:51.572Z,25.45
2018-02-16T11:46:57.761Z,24.75
2018-02-16T11:48:03.964Z,20.48
2018-02-16T11:49:10.215Z,21.73
2018-02-16T11:50:16.396Z,22.45
2018-02-16T11:51:22.579Z,19.75
2018-02-16T11:52:28.724Z,24.58
2018-02-16T11:53:34.956Z,20.30
2018-02-16T11:54:41.139Z,22.60
2018-02-16T11:55:47.300Z,27.27
2018-02-16T11:56:53.474Z,23.75
2018-02-16T11:57:59.593Z,22.67
2018-02-16T11:59:05.759Z,25.80
2018-02-16T12:00:11.731Z,24.63
2018-02-16T12:01:17.909Z,22.27
2018-02-16T12:02:24.069Z,22.58
2018-02-16T12:03:30.258Z,19.10
2018-02-16T12:04:36.416Z,24.77
2018-02-16T12:05:42.619Z,25.37
2018-02-16T12:06:48.821Z,24.83
2018-02-16T12:07:55.072Z,23.05
2018-02-16T12:09:01.261Z,21.20
2018-02-16T12:10:07.172Z,21.00
2018-02-16T12:11:13.349Z,20.98
2018-02-16T12:12:19.547Z,21.40
2018-02-16T12:13:25.721Z,20.60
2018-02-16T12:14:31.901Z,22.33
2018-02-16T12:15:38.107Z,17.23
2018-02-16T12:16:44.300Z,20.12
2018-02-16T12:17:50.443Z,20.62
2018-02-16T12:18:56.656Z,21.45
2018-02-16T12:20:02.892Z,18.67
2018-02-16T12:21:08.804Z,18.70
2018-02-16T12:22:14.777Z,17.00
2018-02-16T12:23:20.959Z,21.08
2018-02-16T12:24:27.152Z,23.12
2018-02-16T12:25:33.303Z,21.90
2018-02-16T12:26:39.516Z,20.40
2018-02-16T12:27:45.699Z,19.75
2018-02-16T12:28:51.867Z,19.48
2018-02-16T12:29:58.077Z,25.67
2018-02-16T12:31:04.237Z,21.17
2018-02-16T12:32:10.478Z,19.92
2018-02-16T12:33:16.467Z,20.25
2018-02-16T12:34:22.659Z,17.87
2018-02-16T12:35:28.864Z,21.52
2018-02-16T12:36:35.033Z,26.37
2018-02-16T12:37:41.212Z,23.58
2018-02-16T12:38:47.377Z,19.90
2018-02-16T12:39:53.602Z,23.42
2018-02-16T12:40:59.739Z,21.77
2018-02-16T12:42:05.967Z,21.00
2018-02-16T12:43:12.185Z,18.67
2018-02-16T12:44:18.362Z,17.95
2018-02-16T12:45:24.513Z,20.80
2018-02-16T12:46:30.677Z,21.10
2018-02-16T12:47:36.878Z,21.12
2018-02-16T12:48:43.037Z,17.48
2018-02-16T12:49:49.178Z,20.75
2018-02-16T12:50:55.366Z,17.42
2018-02-16T12:52:01.549Z,18.40
2018-02-16T12:53:07.686Z,21.02
2018-02-16T12:54:13.836Z,16.30
2018-02-16T12:55:20.048Z,19.23
2018-02-16T12:56:26.264Z,16.45
2018-02-16T12:57:32.404Z,16.70
2018-02-16T12:58:38.567Z,21.75
2018-02-16T12:59:44.779Z,15.80
2018-02-16T13:00:50.972Z,19.00
2018-02-16T13:01:57.151Z,23.30
2018-02-16T13:03:03.345Z,19.05
2018-02-16T13:04:09.141Z,21.60
2018-02-16T13:05:15.309Z,24.75
2018-02-16T13:06:21.590Z,19.58
2018-02-16T13:07:27.799Z,16.87
2018-02-16T13:08:33.956Z,16.00
2018-02-16T13:09:40.136Z,18.10
2018-02-16T13:10:46.290Z,17.37
2018-02-16T13:11:52.511Z,16.12
2018-02-16T13:12:58.732Z,17.15
2018-02-16T13:14:04.952Z,20.37
2018-02-16T13:15:11.126Z,14.25
2018-02-16T13:16:17.345Z,18.95
2018-02-16T13:17:23.235Z,17.48
2018-02-16T13:18:29.456Z,19.37
2018-02-16T13:19:35.619Z,15.15
2018-02-16T13:20:41.812Z,15.88
2018-02-16T13:21:47.789Z,15.25
2018-02-16T13:22:53.980Z,16.58
2018-02-16T13:23:59.905Z,19.52
2018-02-16T13:25:06.111Z,14.27
2018-02-16T13:26:12.263Z,16.25
2018-02-16T13:27:18.463Z,14.80
2018-02-16T13:28:24.669Z,21.60
2018-02-16T13:29:30.851Z,16.80
2018-02-16T13:30:37.141Z,20.42
2018-02-16T13:31:43.324Z,17.37
2018-02-16T13:32:49.533Z,17.30
2018-02-16T13:33:55.797Z,20.02
2018-02-16T13:35:02.060Z,13.70
2018-02-16T13:36:17.848Z,14.45
2018-02-16T13:37:23.793Z,25.08
2018-02-16T13:38:29.981Z,22.87
2018-02-16T13:39:36.206Z,16.65
2018-02-16T13:40:42.348Z,13.13
2018-02-16T13:41:48.564Z,16.37
2018-02-16T13:42:54.789Z,13.40
2018-02-16T13:44:01.000Z,18.00
2018-02-16T13:45:06.901Z,17.48
2018-02-16T13:46:13.105Z,13.73
2018-02-16T13:47:19.345Z,15.32
2018-02-16T13:48:25.574Z,18.25
2018-02-16T13:49:31.792Z,18.17
2018-02-16T13:50:38.282Z,17.75
2018-02-16T13:51:44.530Z,13.02
2018-02-16T13:52:50.444Z,12.00
2018-02-16T13:53:56.613Z,15.30
2018-02-16T13:55:02.880Z,11.52
2018-02-16T13:56:08.675Z,17.15
2018-02-16T13:57:14.887Z,12.10
2018-02-16T13:58:21.073Z,15.32
2018-02-16T13:59:27.225Z,17.02
2018-02-16T14:00:34.384Z,16.95
2018-02-16T14:01:40.586Z,13.75
2018-02-16T14:02:46.796Z,21.77
2018-02-16T14:03:56.057Z,18.87
2018-02-16T14:05:02.267Z,16.00
2018-02-16T14:06:08.486Z,15.23
2018-02-16T14:07:14.686Z,16.35
2018-02-16T14:08:20.851Z,14.65
2018-02-16T14:09:27.064Z,16.02
2018-02-16T14:10:33.263Z,12.63
2018-02-16T14:11:39.474Z,15.13
2018-02-16T14:12:45.610Z,13.10
2018-02-16T14:13:51.784Z,13.95
2018-02-16T14:14:58.000Z,17.08